createdAt,value
2018-05-27T02:43:28.830Z,36.53
2018-05-27T02:46:05.801Z,36.37
2018-05-27T02:48:54.503Z,36.80
2018-05-27T02:51:35.525Z,33.90
2018-05-27T02:57:11.923Z,36.93
2018-05-27T02:59:58.118Z,34.23
2018-05-27T03:02:32.934Z,34.53
2018-05-27T03:05:28.765Z,33.77
2018-05-27T03:08:06.366Z,33.70
2018-05-27T03:13:57.798Z,29.90
2018-05-27T03:23:10.452Z,30.10
2018-05-27T03:25:50.201Z,31.87
2018-05-27T03:28:30.553Z,29.20
2018-05-27T03:31:18.492Z,22.60
2018-05-27T03:33:57.728Z,25.87
2018-05-27T03:36:54.678Z,24.20
2018-05-27T03:45:12.040Z,24.50
2018-05-27T03:51:05.315Z,26.60
2018-05-27T04:02:30.888Z,23.20
2018-05-27T04:05:15.454Z,22.63
2018-05-27T04:08:02.527Z,22.70
2018-05-27T04:10:39.344Z,21.93
2018-05-27T04:56:04.725Z,17.10
2018-05-27T05:02:06.258Z,15.53
2018-05-27T05:04:47.993Z,14.23
2018-05-27T05:07:23.027Z,14.03
2018-05-27T05:10:11.800Z,13.07
2018-05-27T05:12:51.953Z,16.57
2018-05-27T05:18:23.320Z,13.10
2018-05-27T09:12:44.566Z,7.07
2018-05-27T09:15:13.529Z,8.07
2018-05-27T09:17:41.849Z,6.13
2018-05-27T09:20:10.266Z,7.33
2018-05-27T09:22:38.584Z,7.77
2018-05-27T09:25:06.940Z,7.00
2018-05-27T09:27:35.241Z,6.73
2018-05-27T09:30:03.557Z,7.67
2018-05-27T09:32:31.855Z,7.30
2018-05-27T09:35:00.211Z,7.37
2018-05-27T09:37:29.027Z,7.30
2018-05-27T09:39:57.305Z,7.43
2018-05-27T09:42:26.175Z,6.93
2018-05-27T09:44:54.567Z,6.23
2018-05-27T09:47:22.883Z,8.00
2018-05-27T09:49:51.756Z,7.73
2018-05-27T09:52:20.124Z,8.63
2018-05-27T09:54:48.430Z,8.30
2018-05-27T09:57:17.013Z,9.50
2018-05-27T09:59:45.494Z,9.10
2018-05-27T10:02:13.866Z,9.10
2018-05-27T10:04:42.238Z,8.50
2018-05-27T10:07:10.584Z,8.77
2018-05-27T10:09:38.899Z,8.93
2018-05-27T10:12:07.250Z,10.10
2018-05-27T10:14:35.607Z,9.00
2018-05-27T10:17:03.927Z,9.20
2018-05-27T10:19:33.147Z,10.10
2018-05-27T10:22:01.499Z,10.43
2018-05-27T10:24:31.231Z,11.33
2018-05-27T10:27:00.485Z,11.13
2018-05-27T10:29:28.825Z,11.23
2018-05-27T10:31:57.165Z,12.80
2018-05-27T10:34:25.569Z,13.53
2018-05-27T10:36:53.902Z,13.13
2018-05-27T10:39:22.319Z,14.03
2018-05-27T10:41:50.847Z,11.70
2018-05-27T10:44:19.269Z,11.20
2018-05-27T10:46:47.660Z,12.30
2018-05-27T10:49:16.138Z,13.20
2018-05-27T10:51:45.453Z,11.97
2018-05-27T10:54:13.800Z,13.97
2018-05-27T10:56:42.670Z,17.10
2018-05-27T10:59:11.914Z,16.37
2018-05-27T11:01:40.311Z,14.50
2018-05-27T11:04:08.721Z,18.27
2018-05-27T11:06:37.074Z,14.17
2018-05-27T11:09:05.531Z,14.53
2018-05-27T11:11:33.909Z,15.03
2018-05-27T11:14:02.228Z,15.57
2018-05-27T11:16:30.631Z,15.37
2018-05-27T11:19:00.452Z,14.80
2018-05-27T11:21:28.777Z,15.90
2018-05-27T11:23:57.141Z,15.93
2018-05-27T11:26:25.855Z,15.53
2018-05-27T11:28:54.182Z,15.70
2018-05-27T11:31:23.184Z,15.40
2018-05-27T11:33:51.964Z,15.90
2018-05-27T11:36:20.469Z,15.60
2018-05-27T11:38:48.825Z,16.80
2018-05-27T11:41:18.031Z,16.00
2018-05-27T11:43:46.424Z,15.77
2018-05-27T11:46:15.035Z,16.37
2018-05-27T11:48:43.462Z,15.13
2018-05-27T11:51:12.036Z,19.43
2018-05-27T11:53:40.341Z,16.43
2018-05-27T11:56:09.264Z,17.70
2018-05-27T11:58:37.594Z,17.03
2018-05-27T12:01:05.930Z,16.33
2018-05-27T12:03:35.052Z,19.50
2018-05-27T12:06:03.378Z,17.60
2018-05-27T12:08:31.721Z,17.77
2018-05-27T12:11:00.494Z,15.70
2018-05-27T12:13:28.820Z,14.23
2018-05-27T12:15:57.217Z,14.57
2018-05-27T12:18:25.554Z,12.60
2018-05-27T12:20:53.900Z,12.87
2018-05-27T12:23:22.289Z,12.73
2018-05-27T12:25:50.791Z,12.50
2018-05-27T12:28:19.169Z,12.80
2018-05-27T12:30:47.545Z,12.07
2018-05-27T12:33:15.931Z,13.57
2018-05-27T12:35:44.394Z,12.37
2018-05-27T12:38:12.865Z,12.63
2018-05-27T12:40:42.417Z,17.17
2018-05-27T12:43:11.358Z,12.13
2018-05-27T12:45:39.722Z,12.27
2018-05-27T12:48:08.931Z,13.47
2018-05-27T12:50:37.242Z,12.23
2018-05-27T12:53:05.588Z,10.90
2018-05-27T12:55:33.971Z,10.37
2018-05-27T12:58:02.306Z,10.33
2018-05-27T13:00:30.614Z,10.60
2018-05-27T13:02:59.020Z,10.20
2018-05-27T13:05:27.348Z,9.60
2018-05-27T13:07:55.731Z,10.47
2018-05-27T13:10:25.092Z,10.77
2018-05-27T13:12:54.193Z,11.00
2018-05-27T13:15:22.557Z,11.80
2018-05-27T13:17:50.941Z,9.93
2018-05-27T13:20:19.576Z,9.47
2018-05-27T13:22:47.979Z,12.10
2018-05-27T13:25:17.335Z,11.90
2018-05-27T13:27:45.694Z,11.93
2018-05-27T13:30:15.101Z,13.03
2018-05-27T13:32:43.782Z,13.47
2018-05-27T13:35:12.160Z,13.17
2018-05-27T13:37:40.614Z,12.70
2018-05-27T13:40:09.061Z,12.83
2018-05-27T13:42:37.383Z,14.23
2018-05-27T13:45:05.772Z,14.00
2018-05-27T13:47:34.219Z,15.40
2018-05-27T13:50:02.549Z,15.30
2018-05-27T13:52:30.875Z,13.60
2018-05-27T13:54:59.209Z,15.27
2018-05-27T13:57:27.747Z,14.03
2018-05-27T13:59:56.349Z,12.93
2018-05-27T14:02:25.117Z,14.03
2018-05-27T14:04:53.505Z,15.93
2018-05-27T14:07:21.872Z,14.10
2018-05-27T14:09:50.480Z,12.40
2018-05-27T14:12:18.835Z,11.67
2018-05-27T14:14:47.221Z,11.20
2018-05-27T14:17:15.788Z,10.20
2018-05-27T14:19:44.106Z,12.63
2018-05-27T14:22:12.562Z,10.60
2018-05-27T14:24:41.044Z,9.67
2018-05-27T14:27:09.334Z,9.70
2018-05-27T14:29:37.682Z,8.60
2018-05-27T14:32:06.040Z,7.93
2018-05-27T14:34:34.335Z,9.60
2018-05-27T14:37:02.647Z,9.97
2018-05-27T14:39:31.292Z,9.47
2018-05-27T14:41:59.605Z,10.30
2018-05-27T14:44:28.567Z,9.93
2018-05-27T14:46:57.033Z,10.23
2018-05-27T14:49:25.346Z,11.70
2018-05-27T14:51:53.709Z,9.23
2018-05-27T14:54:22.081Z,11.90
2018-05-27T14:56:50.459Z,12.17
2018-05-27T14:59:18.920Z,11.00
2018-05-27T15:01:48.154Z,12.20
2018-05-27T15:04:16.518Z,11.93
2018-05-27T15:06:44.913Z,15.30
2018-05-27T15:09:13.529Z,14.23
2018-05-27T15:11:41.880Z,14.83
2018-05-27T15:14:10.268Z,14.83
2018-05-27T15:16:38.821Z,15.70
2018-05-27T15:19:07.138Z,14.63
2018-05-27T15:21:35.479Z,14.53
2018-05-27T15:24:04.266Z,15.03
2018-05-27T15:26:32.632Z,15.97
2018-05-27T15:29:00.937Z,16.77
2018-05-27T15:31:29.299Z,16.13
2018-05-27T15:33:57.613Z,15.33
2018-05-27T15:36:25.955Z,16.20
2018-05-27T15:38:55.032Z,17.23
2018-05-27T15:41:23.429Z,15.33
2018-05-27T15:43:51.786Z,14.03
2018-05-27T15:46:21.054Z,16.03
2018-05-27T15:48:49.432Z,15.90
2018-05-27T15:51:17.811Z,14.63
2018-05-27T15:53:46.698Z,14.53
2018-05-27T15:56:14.994Z,14.43
2018-05-27T15:58:43.394Z,14.50
2018-05-27T16:01:11.956Z,16.70
2018-05-27T16:03:40.925Z,15.17
2018-05-27T16:06:09.252Z,14.60
2018-05-27T16:08:37.635Z,16.33
2018-05-27T16:11:06.005Z,14.70
2018-05-27T16:13:34.307Z,16.30
2018-05-27T16:16:02.669Z,16.43
2018-05-27T16:18:30.954Z,17.73
2018-05-27T16:20:59.317Z,17.47
2018-05-27T16:23:28.434Z,16.07
2018-05-27T16:25:56.789Z,15.00
2018-05-27T16:28:25.126Z,16.03
2018-05-27T16:30:53.537Z,15.10
2018-05-27T16:33:21.890Z,13.37
2018-05-27T16:35:50.319Z,14.10
2018-05-27T16:38:18.786Z,13.97
2018-05-27T16:40:47.140Z,14.60
2018-05-27T16:43:15.849Z,17.80
2018-05-27T16:45:44.535Z,16.90
2018-05-27T16:48:12.891Z,16.80
2018-05-27T16:50:41.615Z,17.10
2018-05-27T16:53:09.998Z,16.47
2018-05-27T16:55:38.315Z,15.70
2018-05-27T16:58:06.650Z,16.00
2018-05-27T17:00:35.023Z,17.23
2018-05-27T17:03:03.389Z,17.30
2018-05-27T17:05:31.725Z,17.67
2018-05-27T17:08:00.157Z,17.20
2018-05-27T17:10:28.468Z,20.33
2018-05-27T17:12:56.862Z,17.23
2018-05-27T17:15:25.243Z,19.03
2018-05-27T17:17:53.984Z,19.10
2018-05-27T17:20:22.327Z,16.40
2018-05-27T17:22:50.881Z,20.20
2018-05-27T17:25:19.211Z,18.13
2018-05-27T17:27:47.759Z,19.50
2018-05-27T17:30:16.126Z,18.63
2018-05-27T17:32:44.548Z,20.17
2018-05-27T17:35:13.109Z,20.00
2018-05-27T17:37:41.593Z,20.93
2018-05-27T17:40:09.945Z,19.87
2018-05-27T17:42:38.273Z,19.83
2018-05-27T17:45:06.859Z,20.63
2018-05-27T17:47:35.186Z,20.87
2018-05-27T17:50:03.648Z,20.77
2018-05-27T17:52:32.938Z,21.17
2018-05-27T17:55:04.199Z,23.00
2018-05-27T17:57:32.595Z,22.40
2018-05-27T18:00:00.969Z,22.67
2018-05-27T18:02:29.332Z,24.83
2018-05-27T18:04:57.674Z,25.00
2018-05-27T18:07:26.909Z,25.67
2018-05-27T18:09:55.309Z,25.07
2018-05-27T18:12:24.117Z,24.27
2018-05-27T18:14:53.264Z,25.83
2018-05-27T18:17:21.626Z,23.97
2018-05-27T18:19:51.404Z,25.13
2018-05-27T18:22:20.031Z,24.47
2018-05-27T18:24:48.396Z,26.20
2018-05-27T18:27:16.756Z,24.17
2018-05-27T18:29:45.205Z,27.23
2018-05-27T18:32:13.588Z,27.07
2018-05-27T18:34:42.153Z,24.37
2018-05-27T18:37:10.526Z,24.80
2018-05-27T18:39:39.031Z,25.20
2018-05-27T18:42:07.377Z,25.50
2018-05-27T18:44:35.779Z,25.67
2018-05-27T18:47:04.101Z,25.97
2018-05-27T18:49:32.411Z,28.10
2018-05-27T18:52:00.966Z,24.83
2018-05-27T18:54:29.339Z,28.17
2018-05-27T18:56:57.670Z,24.60
2018-05-27T18:59:26.023Z,27.30
2018-05-27T19:01:54.376Z,30.47
2018-05-27T19:04:22.833Z,29.97
2018-05-27T19:06:51.276Z,32.50
2018-05-27T19:09:19.617Z,33.87
2018-05-27T19:11:49.845Z,31.70
2018-05-27T19:14:19.958Z,37.27
2018-05-27T19:16:49.245Z,35.13
2018-05-27T19:19:17.785Z,36.10
2018-05-27T19:21:46.639Z,37.23
2018-05-27T19:24:15.103Z,34.87
2018-05-27T19:26:43.482Z,35.10
2018-05-27T19:29:11.917Z,36.00
2018-05-27T19:31:40.240Z,36.10
2018-05-27T19:34:08.573Z,33.87
2018-05-27T19:36:37.928Z,36.30
2018-05-27T19:39:06.256Z,35.83
2018-05-27T19:41:34.573Z,36.50
2018-05-27T19:44:04.487Z,35.43
2018-05-27T19:46:32.823Z,39.57
2018-05-27T19:49:01.176Z,35.97
2018-05-27T19:51:30.186Z,35.20
2018-05-27T19:53:58.514Z,38.97
2018-05-27T19:56:26.841Z,35.13
2018-05-27T19:58:55.229Z,36.50
2018-05-27T20:01:23.584Z,39.77
2018-05-27T20:03:52.009Z,36.17
2018-05-27T20:06:20.747Z,35.57
2018-05-27T20:08:49.188Z,36.97
2018-05-27T20:11:17.592Z,35.67
2018-05-27T20:13:46.292Z,36.43
2018-05-27T20:16:14.602Z,37.77
2018-05-27T20:18:43.001Z,35.90
2018-05-27T20:21:11.488Z,35.27
2018-05-27T20:23:39.909Z,34.70
2018-05-27T20:26:11.263Z,36.27
2018-05-27T20:28:42.599Z,35.00
2018-05-27T20:31:13.348Z,34.73
2018-05-27T20:33:44.139Z,36.23
2018-05-27T20:36:14.535Z,35.93
2018-05-27T20:38:48.003Z,33.93
2018-05-27T20:41:21.609Z,30.93
2018-05-27T20:43:51.722Z,34.60
2018-05-27T20:46:23.102Z,33.10
2018-05-27T20:48:51.678Z,35.80
2018-05-27T20:51:23.514Z,31.73
2018-05-27T20:53:52.700Z,34.90
2018-05-27T20:56:21.174Z,34.07
2018-05-27T20:58:51.630Z,42.90
2018-05-27T21:01:23.077Z,37.00
2018-05-27T21:03:52.392Z,33.90
2018-05-27T21:06:23.009Z,35.70
2018-05-27T21:08:51.705Z,33.20
2018-05-27T21:11:20.447Z,35.37
2018-05-27T21:13:48.783Z,32.33
2018-05-27T21:16:17.415Z,36.03
2018-05-27T21:18:46.007Z,34.83
2018-05-27T21:21:14.431Z,37.27
2018-05-27T21:23:45.274Z,37.53
2018-05-27T21:26:13.893Z,37.77
2018-05-27T21:28:42.279Z,35.43
2018-05-27T21:31:10.859Z,38.70
2018-05-27T21:33:39.465Z,38.13
2018-05-27T21:36:07.789Z,37.30
2018-05-27T21:38:36.117Z,37.07
2018-05-27T21:41:04.476Z,36.30
2018-05-27T21:43:32.825Z,36.40
2018-05-27T21:46:01.168Z,36.20
2018-05-27T21:48:29.847Z,38.60
2018-05-27T21:50:59.133Z,37.13
2018-05-27T21:53:27.470Z,36.87
2018-05-27T21:55:55.842Z,36.47
2018-05-27T21:58:24.260Z,35.17
2018-05-27T22:00:52.902Z,35.20
2018-05-27T22:03:21.699Z,35.10
2018-05-27T22:05:50.059Z,36.23
2018-05-27T22:08:18.497Z,32.90
2018-05-27T22:10:46.946Z,33.00
2018-05-27T22:13:15.421Z,34.27
2018-05-27T22:15:44.274Z,34.97
2018-05-27T22:18:12.657Z,34.60
2018-05-27T22:20:40.995Z,33.13
2018-05-27T22:23:09.309Z,34.97
2018-05-27T22:25:37.665Z,36.67
2018-05-27T22:28:06.023Z,35.43
2018-05-27T22:30:34.339Z,35.20
2018-05-27T22:33:03.557Z,34.60
2018-05-27T22:35:31.873Z,36.50
2018-05-27T22:38:00.182Z,35.03
2018-05-27T22:40:28.861Z,37.07
2018-05-27T22:42:57.194Z,36.60
2018-05-27T22:45:25.720Z,36.70
2018-05-27T22:47:54.081Z,35.43
2018-05-27T22:50:22.456Z,35.37
2018-05-27T22:52:50.797Z,34.50
2018-05-27T22:55:19.223Z,35.80
2018-05-27T22:57:47.600Z,36.43
2018-05-27T23:00:15.959Z,34.83
2018-05-27T23:02:44.429Z,38.10
2018-05-27T23:05:12.820Z,34.93
2018-05-27T23:07:41.150Z,37.30
2018-05-27T23:10:09.754Z,34.67
2018-05-27T23:12:38.285Z,35.43
2018-05-27T23:15:06.649Z,35.00
2018-05-27T23:17:35.005Z,35.20
2018-05-27T23:20:09.254Z,32.80
2018-05-27T23:22:37.869Z,34.30
2018-05-27T23:25:06.259Z,34.90
2018-05-27T23:27:34.633Z,35.10
2018-05-27T23:30:04.159Z,34.37
2018-05-27T23:32:32.480Z,35.17
2018-05-27T23:35:00.786Z,34.30
2018-05-27T23:37:29.352Z,34.20
2018-05-27T23:39:57.719Z,32.20
2018-05-27T23:42:26.051Z,34.80
2018-05-27T23:44:54.778Z,32.03
2018-05-27T23:47:23.124Z,35.87
2018-05-27T23:49:51.448Z,34.60
2018-05-27T23:52:21.142Z,33.07
2018-05-27T23:54:49.597Z,35.63
2018-05-27T23:57:17.968Z,33.90
2018-05-27T23:59:46.393Z,34.70
